sensor_id;sensor_type;location;lat;lon;timestamp;P1;durP1;ratioP1;P2;durP2;ratioP2
19879;SDS011;10102;50.828;4.416;2022-07-01T00:01:27;9.95;;;4.70;;
19879;SDS011;10102;50.828;4.416;2022-07-01T00:03:53;13.45;;;4.90;;
19879;SDS011;10102;50.828;4.416;2022-07-01T00:06:19;6.70;;;4.78;;
19879;SDS011;10102;50.828;4.416;2022-07-01T00:08:45;7.60;;;4.75;;
19879;SDS011;10102;50.828;4.416;2022-07-01T00:11:11;8.25;;;4.50;;
19879;SDS011;10102;50.828;4.416;2022-07-01T00:13:37;11.73;;;5.57;;
19879;SDS011;10102;50.828;4.416;2022-07-01T00:16:03;11.38;;;4.55;;
19879;SDS011;10102;50.828;4.416;2022-07-01T00:18:30;8.75;;;5.10;;
19879;SDS011;10102;50.828;4.416;2022-07-01T00:20:56;8.77;;;5.47;;
19879;SDS011;10102;50.828;4.416;2022-07-01T00:23:22;8.77;;;4.93;;
19879;SDS011;10102;50.828;4.416;2022-07-01T00:25:48;10.77;;;5.72;;
19879;SDS011;10102;50.828;4.416;2022-07-01T00:28:14;12.70;;;5.18;;
19879;SDS011;10102;50.828;4.416;2022-07-01T00:30:40;17.13;;;5.10;;
19879;SDS011;10102;50.828;4.416;2022-07-01T00:33:06;8.95;;;5.07;;
19879;SDS011;10102;50.828;4.416;2022-07-01T00:35:31;13.75;;;5.90;;
19879;SDS011;10102;50.828;4.416;2022-07-01T00:37:58;11.07;;;5.53;;
19879;SDS011;10102;50.828;4.416;2022-07-01T00:40:24;11.77;;;5.93;;
19879;SDS011;10102;50.828;4.416;2022-07-01T00:42:49;12.57;;;5.90;;
19879;SDS011;10102;50.828;4.416;2022-07-01T00:45:16;14.48;;;6.05;;
19879;SDS011;10102;50.828;4.416;2022-07-01T00:47:43;10.63;;;6.07;;
19879;SDS011;10102;50.828;4.416;2022-07-01T00:50:10;12.73;;;5.80;;
19879;SDS011;10102;50.828;4.416;2022-07-01T00:52:38;13.05;;;5.70;;
19879;SDS011;10102;50.828;4.416;2022-07-01T00:55:12;14.93;;;6.20;;
19879;SDS011;10102;50.828;4.416;2022-07-01T00:57:41;21.00;;;6.28;;
19879;SDS011;10102;50.828;4.416;2022-07-01T01:00:15;10.40;;;6.00;;
19879;SDS011;10102;50.828;4.416;2022-07-01T01:02:51;13.77;;;6.28;;
19879;SDS011;10102;50.828;4.416;2022-07-01T01:05:18;17.85;;;6.55;;
19879;SDS011;10102;50.828;4.416;2022-07-01T01:07:46;14.40;;;6.40;;
19879;SDS011;10102;50.828;4.416;2022-07-01T01:10:12;15.55;;;6.65;;
19879;SDS011;10102;50.828;4.416;2022-07-01T01:12:39;16.52;;;7.53;;
19879;SDS011;10102;50.828;4.416;2022-07-01T01:15:05;16.35;;;7.10;;
19879;SDS011;10102;50.828;4.416;2022-07-01T01:17:32;18.13;;;7.28;;
19879;SDS011;10102;50.828;4.416;2022-07-01T01:19:58;14.70;;;6.78;;
19879;SDS011;10102;50.828;4.416;2022-07-01T01:22:24;17.80;;;8.00;;
19879;SDS011;10102;50.828;4.416;2022-07-01T01:24:50;16.15;;;7.47;;
19879;SDS011;10102;50.828;4.416;2022-07-01T01:27:16;15.27;;;7.50;;
19879;SDS011;10102;50.828;4.416;2022-07-01T01:29:42;13.15;;;7.15;;
19879;SDS011;10102;50.828;4.416;2022-07-01T01:32:09;11.77;;;6.97;;
19879;SDS011;10102;50.828;4.416;2022-07-01T01:34:36;17.23;;;7.22;;
19879;SDS011;10102;50.828;4.416;2022-07-01T01:37:04;15.27;;;7.43;;
19879;SDS011;10102;50.828;4.416;2022-07-01T01:39:30;14.82;;;7.13;;
19879;SDS011;10102;50.828;4.416;2022-07-01T01:41:56;15.95;;;6.78;;
19879;SDS011;10102;50.828;4.416;2022-07-01T01:44:22;14.57;;;7.32;;
19879;SDS011;10102;50.828;4.416;2022-07-01T01:46:47;16.45;;;7.47;;
19879;SDS011;10102;50.828;4.416;2022-07-01T01:49:13;16.75;;;7.05;;
19879;SDS011;10102;50.828;4.416;2022-07-01T01:51:39;17.05;;;7.13;;
19879;SDS011;10102;50.828;4.416;2022-07-01T01:54:05;13.73;;;7.63;;
19879;SDS011;10102;50.828;4.416;2022-07-01T01:56:31;12.02;;;6.72;;
19879;SDS011;10102;50.828;4.416;2022-07-01T01:58:57;20.58;;;7.05;;
19879;SDS011;10102;50.828;4.416;2022-07-01T02:01:23;10.20;;;6.10;;
19879;SDS011;10102;50.828;4.416;2022-07-01T02:03:50;17.02;;;7.05;;
19879;SDS011;10102;50.828;4.416;2022-07-01T02:06:17;17.40;;;6.93;;
19879;SDS011;10102;50.828;4.416;2022-07-01T02:08:44;16.45;;;6.90;;
19879;SDS011;10102;50.828;4.416;2022-07-01T02:11:10;19.92;;;6.95;;
19879;SDS011;10102;50.828;4.416;2022-07-01T02:13:36;17.85;;;7.28;;
19879;SDS011;10102;50.828;4.416;2022-07-01T02:16:04;14.07;;;7.15;;
19879;SDS011;10102;50.828;4.416;2022-07-01T02:18:30;11.93;;;6.85;;
19879;SDS011;10102;50.828;4.416;2022-07-01T02:20:58;19.65;;;6.95;;
19879;SDS011;10102;50.828;4.416;2022-07-01T02:23:24;12.40;;;6.47;;
19879;SDS011;10102;50.828;4.416;2022-07-01T02:25:50;15.95;;;6.32;;
19879;SDS011;10102;50.828;4.416;2022-07-01T02:28:15;13.45;;;5.68;;
19879;SDS011;10102;50.828;4.416;2022-07-01T02:30:41;13.60;;;6.38;;
19879;SDS011;10102;50.828;4.416;2022-07-01T02:33:07;23.27;;;6.63;;
19879;SDS011;10102;50.828;4.416;2022-07-01T02:35:37;10.52;;;6.15;;
19879;SDS011;10102;50.828;4.416;2022-07-01T02:38:05;11.93;;;6.38;;
19879;SDS011;10102;50.828;4.416;2022-07-01T02:40:32;13.70;;;7.25;;
19879;SDS011;10102;50.828;4.416;2022-07-01T02:42:59;12.98;;;6.25;;
19879;SDS011;10102;50.828;4.416;2022-07-01T02:45:25;11.40;;;6.28;;
19879;SDS011;10102;50.828;4.416;2022-07-01T02:47:51;17.13;;;6.32;;
19879;SDS011;10102;50.828;4.416;2022-07-01T02:50:17;15.25;;;6.00;;
19879;SDS011;10102;50.828;4.416;2022-07-01T02:52:44;11.60;;;6.75;;
19879;SDS011;10102;50.828;4.416;2022-07-01T02:55:11;11.25;;;5.90;;
19879;SDS011;10102;50.828;4.416;2022-07-01T02:57:38;12.00;;;5.85;;
19879;SDS011;10102;50.828;4.416;2022-07-01T03:00:06;16.88;;;6.05;;
19879;SDS011;10102;50.828;4.416;2022-07-01T03:02:33;10.65;;;5.65;;
19879;SDS011;10102;50.828;4.416;2022-07-01T03:04:59;13.77;;;5.57;;
19879;SDS011;10102;50.828;4.416;2022-07-01T03:07:25;11.50;;;5.75;;
19879;SDS011;10102;50.828;4.416;2022-07-01T03:09:51;11.18;;;5.35;;
19879;SDS011;10102;50.828;4.416;2022-07-01T03:12:17;14.10;;;5.25;;
19879;SDS011;10102;50.828;4.416;2022-07-01T03:14:55;8.32;;;5.53;;
19879;SDS011;10102;50.828;4.416;2022-07-01T03:17:34;14.23;;;5.75;;
19879;SDS011;10102;50.828;4.416;2022-07-01T03:20:01;13.73;;;4.90;;
19879;SDS011;10102;50.828;4.416;2022-07-01T03:22:29;14.13;;;5.28;;
19879;SDS011;10102;50.828;4.416;2022-07-01T03:24:56;14.15;;;6.43;;
19879;SDS011;10102;50.828;4.416;2022-07-01T03:27:22;19.42;;;6.03;;
19879;SDS011;10102;50.828;4.416;2022-07-01T03:29:49;16.02;;;6.68;;
19879;SDS011;10102;50.828;4.416;2022-07-01T03:32:15;17.05;;;6.70;;
19879;SDS011;10102;50.828;4.416;2022-07-01T03:34:43;14.32;;;7.38;;
19879;SDS011;10102;50.828;4.416;2022-07-01T03:37:10;16.80;;;7.80;;
19879;SDS011;10102;50.828;4.416;2022-07-01T03:39:37;16.23;;;8.10;;
19879;SDS011;10102;50.828;4.416;2022-07-01T03:42:04;12.48;;;7.50;;
19879;SDS011;10102;50.828;4.416;2022-07-01T03:44:31;22.08;;;9.30;;
19879;SDS011;10102;50.828;4.416;2022-07-01T03:46:57;23.33;;;9.45;;
19879;SDS011;10102;50.828;4.416;2022-07-01T03:49:23;13.60;;;9.38;;
19879;SDS011;10102;50.828;4.416;2022-07-01T03:51:49;15.48;;;8.90;;
19879;SDS011;10102;50.828;4.416;2022-07-01T03:54:15;14.50;;;8.43;;
19879;SDS011;10102;50.828;4.416;2022-07-01T03:57:07;13.50;;;8.80;;
19879;SDS011;10102;50.828;4.416;2022-07-01T03:59:36;17.30;;;8.52;;
19879;SDS011;10102;50.828;4.416;2022-07-01T04:02:03;14.40;;;8.32;;
19879;SDS011;10102;50.828;4.416;2022-07-01T04:04:29;12.52;;;7.32;;
19879;SDS011;10102;50.828;4.416;2022-07-01T04:06:56;11.23;;;7.43;;
19879;SDS011;10102;50.828;4.416;2022-07-01T04:09:23;12.18;;;6.05;;
19879;SDS011;10102;50.828;4.416;2022-07-01T04:11:50;14.15;;;6.72;;
19879;SDS011;10102;50.828;4.416;2022-07-01T04:14:17;11.05;;;5.68;;
19879;SDS011;10102;50.828;4.416;2022-07-01T04:16:43;11.40;;;5.53;;
19879;SDS011;10102;50.828;4.416;2022-07-01T04:19:10;14.63;;;5.72;;
19879;SDS011;10102;50.828;4.416;2022-07-01T04:21:36;13.45;;;4.50;;
19879;SDS011;10102;50.828;4.416;2022-07-01T04:24:20;6.55;;;4.90;;
19879;SDS011;10102;50.828;4.416;2022-07-01T04:26:49;8.60;;;4.10;;
19879;SDS011;10102;50.828;4.416;2022-07-01T04:29:16;9.02;;;4.50;;
19879;SDS011;10102;50.828;4.416;2022-07-01T04:31:42;9.90;;;4.78;;
19879;SDS011;10102;50.828;4.416;2022-07-01T04:34:08;11.25;;;4.63;;
19879;SDS011;10102;50.828;4.416;2022-07-01T04:36:34;13.48;;;4.88;;
19879;SDS011;10102;50.828;4.416;2022-07-01T04:39:00;8.68;;;4.32;;
19879;SDS011;10102;50.828;4.416;2022-07-01T04:41:27;10.80;;;4.32;;
19879;SDS011;10102;50.828;4.416;2022-07-01T04:44:12;8.05;;;4.45;;
19879;SDS011;10102;50.828;4.416;2022-07-01T04:46:38;10.63;;;3.65;;
19879;SDS011;10102;50.828;4.416;2022-07-01T04:49:09;11.43;;;4.45;;
19879;SDS011;10102;50.828;4.416;2022-07-01T04:51:35;11.00;;;4.10;;
19879;SDS011;10102;50.828;4.416;2022-07-01T04:57:10;10.30;;;4.22;;
19879;SDS011;10102;50.828;4.416;2022-07-01T04:59:36;7.75;;;3.72;;
19879;SDS011;10102;50.828;4.416;2022-07-01T05:02:02;7.13;;;3.67;;
19879;SDS011;10102;50.828;4.416;2022-07-01T05:04:28;16.77;;;4.53;;
19879;SDS011;10102;50.828;4.416;2022-07-01T05:06:54;10.70;;;3.70;;
19879;SDS011;10102;50.828;4.416;2022-07-01T05:09:19;12.88;;;4.50;;
19879;SDS011;10102;50.828;4.416;2022-07-01T05:11:45;9.25;;;3.75;;
19879;SDS011;10102;50.828;4.416;2022-07-01T05:14:11;8.82;;;4.10;;
19879;SDS011;10102;50.828;4.416;2022-07-01T05:16:37;10.77;;;3.75;;
19879;SDS011;10102;50.828;4.416;2022-07-01T05:19:02;5.88;;;3.55;;
19879;SDS011;10102;50.828;4.416;2022-07-01T05:21:47;9.05;;;3.85;;
19879;SDS011;10102;50.828;4.416;2022-07-01T05:24:24;5.88;;;2.88;;
19879;SDS011;10102;50.828;4.416;2022-07-01T05:26:52;8.88;;;3.80;;
19879;SDS011;10102;50.828;4.416;2022-07-01T05:29:18;7.90;;;3.30;;
19879;SDS011;10102;50.828;4.416;2022-07-01T05:31:44;9.25;;;3.95;;
19879;SDS011;10102;50.828;4.416;2022-07-01T05:34:09;8.68;;;3.95;;
19879;SDS011;10102;50.828;4.416;2022-07-01T05:36:35;9.05;;;3.50;;
19879;SDS011;10102;50.828;4.416;2022-07-01T05:39:01;7.22;;;3.70;;
19879;SDS011;10102;50.828;4.416;2022-07-01T05:41:27;7.40;;;3.10;;
19879;SDS011;10102;50.828;4.416;2022-07-01T05:43:54;9.40;;;3.60;;
19879;SDS011;10102;50.828;4.416;2022-07-01T05:46:20;10.27;;;3.80;;
19879;SDS011;10102;50.828;4.416;2022-07-01T05:48:45;8.98;;;3.67;;
19879;SDS011;10102;50.828;4.416;2022-07-01T05:51:11;7.00;;;3.75;;
19879;SDS011;10102;50.828;4.416;2022-07-01T05:53:37;12.68;;;3.53;;
19879;SDS011;10102;50.828;4.416;2022-07-01T05:56:04;15.43;;;3.90;;
19879;SDS011;10102;50.828;4.416;2022-07-01T05:58:29;9.48;;;3.80;;
19879;SDS011;10102;50.828;4.416;2022-07-01T06:00:55;10.35;;;3.22;;
19879;SDS011;10102;50.828;4.416;2022-07-01T06:03:22;11.35;;;3.13;;
19879;SDS011;10102;50.828;4.416;2022-07-01T06:05:47;17.85;;;3.72;;
19879;SDS011;10102;50.828;4.416;2022-07-01T06:08:13;5.57;;;3.00;;
19879;SDS011;10102;50.828;4.416;2022-07-01T06:10:39;6.75;;;2.75;;
19879;SDS011;10102;50.828;4.416;2022-07-01T06:13:04;6.10;;;2.88;;
19879;SDS011;10102;50.828;4.416;2022-07-01T06:15:30;9.63;;;2.92;;
19879;SDS011;10102;50.828;4.416;2022-07-01T06:17:57;4.20;;;2.25;;
19879;SDS011;10102;50.828;4.416;2022-07-01T06:23:46;7.78;;;2.53;;
19879;SDS011;10102;50.828;4.416;2022-07-01T06:26:13;6.65;;;2.35;;
19879;SDS011;10102;50.828;4.416;2022-07-01T06:28:39;11.20;;;2.92;;
19879;SDS011;10102;50.828;4.416;2022-07-01T06:31:05;6.40;;;3.25;;
19879;SDS011;10102;50.828;4.416;2022-07-01T06:33:31;7.22;;;2.40;;
19879;SDS011;10102;50.828;4.416;2022-07-01T06:35:57;8.82;;;2.50;;
19879;SDS011;10102;50.828;4.416;2022-07-01T06:38:23;5.97;;;2.25;;
19879;SDS011;10102;50.828;4.416;2022-07-01T06:40:49;8.45;;;2.28;;
19879;SDS011;10102;50.828;4.416;2022-07-01T06:43:33;9.57;;;2.70;;
19879;SDS011;10102;50.828;4.416;2022-07-01T06:46:00;6.03;;;2.15;;
19879;SDS011;10102;50.828;4.416;2022-07-01T06:48:26;9.80;;;2.67;;
19879;SDS011;10102;50.828;4.416;2022-07-01T06:50:52;8.50;;;2.20;;
19879;SDS011;10102;50.828;4.416;2022-07-01T06:53:17;6.60;;;2.33;;
19879;SDS011;10102;50.828;4.416;2022-07-01T06:55:44;5.97;;;2.75;;
19879;SDS011;10102;50.828;4.416;2022-07-01T06:58:10;6.95;;;2.17;;
19879;SDS011;10102;50.828;4.416;2022-07-01T07:00:36;6.88;;;2.17;;
19879;SDS011;10102;50.828;4.416;2022-07-01T07:03:02;9.05;;;2.00;;
19879;SDS011;10102;50.828;4.416;2022-07-01T07:05:28;5.00;;;2.30;;
19879;SDS011;10102;50.828;4.416;2022-07-01T07:07:57;11.35;;;2.42;;
19879;SDS011;10102;50.828;4.416;2022-07-01T07:10:23;3.63;;;1.83;;
19879;SDS011;10102;50.828;4.416;2022-07-01T07:12:49;11.88;;;2.63;;
19879;SDS011;10102;50.828;4.416;2022-07-01T07:15:15;9.70;;;2.40;;
19879;SDS011;10102;50.828;4.416;2022-07-01T07:17:41;5.43;;;1.67;;
19879;SDS011;10102;50.828;4.416;2022-07-01T07:20:07;8.00;;;1.83;;
19879;SDS011;10102;50.828;4.416;2022-07-01T07:22:33;4.65;;;1.60;;
19879;SDS011;10102;50.828;4.416;2022-07-01T07:24:59;8.15;;;2.20;;
19879;SDS011;10102;50.828;4.416;2022-07-01T07:27:25;6.05;;;1.33;;
19879;SDS011;10102;50.828;4.416;2022-07-01T07:29:51;7.07;;;1.45;;
19879;SDS011;10102;50.828;4.416;2022-07-01T07:32:16;9.10;;;1.77;;
19879;SDS011;10102;50.828;4.416;2022-07-01T07:34:42;7.15;;;1.40;;
19879;SDS011;10102;50.828;4.416;2022-07-01T07:37:08;7.85;;;1.60;;
19879;SDS011;10102;50.828;4.416;2022-07-01T07:39:34;8.80;;;1.70;;
19879;SDS011;10102;50.828;4.416;2022-07-01T07:42:00;6.88;;;1.58;;
19879;SDS011;10102;50.828;4.416;2022-07-01T07:44:26;4.05;;;1.58;;
19879;SDS011;10102;50.828;4.416;2022-07-01T07:46:52;7.30;;;1.48;;
19879;SDS011;10102;50.828;4.416;2022-07-01T07:49:18;8.38;;;1.50;;
19879;SDS011;10102;50.828;4.416;2022-07-01T07:51:44;5.90;;;1.55;;
19879;SDS011;10102;50.828;4.416;2022-07-01T07:54:10;12.15;;;1.55;;
19879;SDS011;10102;50.828;4.416;2022-07-01T07:56:36;7.07;;;1.27;;
19879;SDS011;10102;50.828;4.416;2022-07-01T07:59:01;4.85;;;1.50;;
19879;SDS011;10102;50.828;4.416;2022-07-01T08:01:27;6.65;;;1.10;;
19879;SDS011;10102;50.828;4.416;2022-07-01T08:03:53;4.82;;;1.05;;
19879;SDS011;10102;50.828;4.416;2022-07-01T08:06:19;10.13;;;1.67;;
19879;SDS011;10102;50.828;4.416;2022-07-01T08:08:44;6.97;;;1.58;;
19879;SDS011;10102;50.828;4.416;2022-07-01T08:11:11;7.38;;;1.98;;
19879;SDS011;10102;50.828;4.416;2022-07-01T08:13:37;6.28;;;1.45;;
19879;SDS011;10102;50.828;4.416;2022-07-01T08:16:02;7.95;;;1.55;;
19879;SDS011;10102;50.828;4.416;2022-07-01T08:18:29;8.63;;;1.85;;
19879;SDS011;10102;50.828;4.416;2022-07-01T08:20:55;3.88;;;1.10;;
19879;SDS011;10102;50.828;4.416;2022-07-01T08:23:21;3.40;;;1.00;;
19879;SDS011;10102;50.828;4.416;2022-07-01T08:25:48;8.25;;;1.48;;
19879;SDS011;10102;50.828;4.416;2022-07-01T08:28:14;8.00;;;1.20;;
19879;SDS011;10102;50.828;4.416;2022-07-01T08:30:40;8.02;;;1.40;;
19879;SDS011;10102;50.828;4.416;2022-07-01T08:33:06;7.00;;;1.17;;
19879;SDS011;10102;50.828;4.416;2022-07-01T08:35:32;6.43;;;1.30;;
19879;SDS011;10102;50.828;4.416;2022-07-01T08:37:58;5.32;;;1.17;;
19879;SDS011;10102;50.828;4.416;2022-07-01T08:40:27;5.55;;;1.10;;
19879;SDS011;10102;50.828;4.416;2022-07-01T08:42:55;4.35;;;1.25;;
19879;SDS011;10102;50.828;4.416;2022-07-01T08:45:25;9.75;;;1.20;;
19879;SDS011;10102;50.828;4.416;2022-07-01T08:47:53;8.32;;;1.00;;
19879;SDS011;10102;50.828;4.416;2022-07-01T08:50:23;6.93;;;1.48;;
19879;SDS011;10102;50.828;4.416;2022-07-01T08:52:50;5.80;;;1.40;;
19879;SDS011;10102;50.828;4.416;2022-07-01T08:55:18;5.00;;;1.42;;
19879;SDS011;10102;50.828;4.416;2022-07-01T08:57:47;9.85;;;1.42;;
19879;SDS011;10102;50.828;4.416;2022-07-01T09:00:13;7.07;;;1.05;;
19879;SDS011;10102;50.828;4.416;2022-07-01T09:02:56;5.40;;;1.20;;
19879;SDS011;10102;50.828;4.416;2022-07-01T09:05:24;7.60;;;1.15;;
19879;SDS011;10102;50.828;4.416;2022-07-01T09:07:58;2.75;;;1.13;;
19879;SDS011;10102;50.828;4.416;2022-07-01T09:10:33;7.13;;;1.00;;
19879;SDS011;10102;50.828;4.416;2022-07-01T09:13:06;14.77;;;1.50;;
19879;SDS011;10102;50.828;4.416;2022-07-01T09:15:33;5.63;;;1.35;;
19879;SDS011;10102;50.828;4.416;2022-07-01T09:18:04;3.50;;;1.30;;
19879;SDS011;10102;50.828;4.416;2022-07-01T09:20:38;4.63;;;1.48;;
19879;SDS011;10102;50.828;4.416;2022-07-01T09:23:14;4.70;;;1.30;;
19879;SDS011;10102;50.828;4.416;2022-07-01T09:25:42;3.25;;;1.35;;
19879;SDS011;10102;50.828;4.416;2022-07-01T09:28:14;5.22;;;1.52;;
19879;SDS011;10102;50.828;4.416;2022-07-01T09:30:44;4.97;;;1.98;;
19879;SDS011;10102;50.828;4.416;2022-07-01T09:33:13;5.95;;;1.55;;
19879;SDS011;10102;50.828;4.416;2022-07-01T09:35:41;5.03;;;1.40;;
19879;SDS011;10102;50.828;4.416;2022-07-01T09:38:10;5.97;;;1.73;;
19879;SDS011;10102;50.828;4.416;2022-07-01T09:43:14;9.63;;;1.77;;
19879;SDS011;10102;50.828;4.416;2022-07-01T09:45:57;2.15;;;1.10;;
19879;SDS011;10102;50.828;4.416;2022-07-01T09:51:02;3.65;;;1.50;;
19879;SDS011;10102;50.828;4.416;2022-07-01T09:53:29;3.53;;;1.50;;
19879;SDS011;10102;50.828;4.416;2022-07-01T09:55:55;1.45;;;1.25;;
19879;SDS011;10102;50.828;4.416;2022-07-01T09:58:21;3.15;;;1.35;;
19879;SDS011;10102;50.828;4.416;2022-07-01T10:00:47;4.93;;;1.70;;
19879;SDS011;10102;50.828;4.416;2022-07-01T10:03:12;4.38;;;1.77;;
19879;SDS011;10102;50.828;4.416;2022-07-01T10:05:41;3.65;;;1.70;;
19879;SDS011;10102;50.828;4.416;2022-07-01T10:14:05;4.50;;;2.05;;
19879;SDS011;10102;50.828;4.416;2022-07-01T10:16:32;4.80;;;1.90;;
19879;SDS011;10102;50.828;4.416;2022-07-01T10:18:59;1.95;;;1.42;;
19879;SDS011;10102;50.828;4.416;2022-07-01T10:21:49;2.72;;;1.55;;
19879;SDS011;10102;50.828;4.416;2022-07-01T10:24:17;4.40;;;1.20;;
19879;SDS011;10102;50.828;4.416;2022-07-01T10:26:43;4.97;;;2.15;;
19879;SDS011;10102;50.828;4.416;2022-07-01T10:32:00;2.75;;;1.80;;
19879;SDS011;10102;50.828;4.416;2022-07-01T10:34:44;6.95;;;1.75;;
19879;SDS011;10102;50.828;4.416;2022-07-01T10:37:11;8.07;;;1.80;;
19879;SDS011;10102;50.828;4.416;2022-07-01T10:42:19;4.05;;;1.50;;
19879;SDS011;10102;50.828;4.416;2022-07-01T10:47:29;3.95;;;1.50;;
19879;SDS011;10102;50.828;4.416;2022-07-01T10:49:56;4.20;;;1.50;;
19879;SDS011;10102;50.828;4.416;2022-07-01T10:52:33;3.78;;;1.70;;
19879;SDS011;10102;50.828;4.416;2022-07-01T10:55:00;7.28;;;2.03;;
19879;SDS011;10102;50.828;4.416;2022-07-01T10:57:48;7.50;;;2.00;;
19879;SDS011;10102;50.828;4.416;2022-07-01T11:02:47;2.80;;;1.50;;
19879;SDS011;10102;50.828;4.416;2022-07-01T11:05:14;5.63;;;1.52;;
19879;SDS011;10102;50.828;4.416;2022-07-01T11:07:41;7.00;;;1.40;;
19879;SDS011;10102;50.828;4.416;2022-07-01T11:10:09;4.72;;;1.50;;
19879;SDS011;10102;50.828;4.416;2022-07-01T11:12:35;7.00;;;1.10;;
19879;SDS011;10102;50.828;4.416;2022-07-01T11:15:02;5.53;;;1.67;;
19879;SDS011;10102;50.828;4.416;2022-07-01T11:17:31;4.95;;;1.55;;
19879;SDS011;10102;50.828;4.416;2022-07-01T11:19:57;1.92;;;1.08;;
19879;SDS011;10102;50.828;4.416;2022-07-01T11:22:27;4.18;;;1.17;;
19879;SDS011;10102;50.828;4.416;2022-07-01T11:24:56;4.05;;;1.02;;
19879;SDS011;10102;50.828;4.416;2022-07-01T11:27:24;4.15;;;1.10;;
19879;SDS011;10102;50.828;4.416;2022-07-01T11:29:54;3.17;;;1.30;;
19879;SDS011;10102;50.828;4.416;2022-07-01T11:32:25;5.93;;;1.33;;
19879;SDS011;10102;50.828;4.416;2022-07-01T11:34:56;7.03;;;1.10;;
19879;SDS011;10102;50.828;4.416;2022-07-01T11:37:22;3.95;;;1.27;;
19879;SDS011;10102;50.828;4.416;2022-07-01T11:40:11;4.55;;;0.80;;
19879;SDS011;10102;50.828;4.416;2022-07-01T11:42:38;3.55;;;0.88;;
19879;SDS011;10102;50.828;4.416;2022-07-01T11:45:04;3.17;;;0.73;;
19879;SDS011;10102;50.828;4.416;2022-07-01T11:47:31;5.47;;;0.80;;
19879;SDS011;10102;50.828;4.416;2022-07-01T11:49:57;1.27;;;0.65;;
19879;SDS011;10102;50.828;4.416;2022-07-01T11:52:24;2.88;;;0.68;;
19879;SDS011;10102;50.828;4.416;2022-07-01T11:54:51;3.05;;;0.70;;
19879;SDS011;10102;50.828;4.416;2022-07-01T11:57:20;1.92;;;0.70;;
19879;SDS011;10102;50.828;4.416;2022-07-01T11:59:48;3.90;;;0.80;;
19879;SDS011;10102;50.828;4.416;2022-07-01T12:02:16;3.10;;;1.00;;
19879;SDS011;10102;50.828;4.416;2022-07-01T12:04:44;4.80;;;1.48;;
19879;SDS011;10102;50.828;4.416;2022-07-01T12:07:10;5.07;;;0.60;;
19879;SDS011;10102;50.828;4.416;2022-07-01T12:09:38;3.03;;;0.68;;
19879;SDS011;10102;50.828;4.416;2022-07-01T12:12:04;2.15;;;0.60;;
19879;SDS011;10102;50.828;4.416;2022-07-01T12:14:31;2.75;;;0.70;;
19879;SDS011;10102;50.828;4.416;2022-07-01T12:17:00;3.90;;;0.60;;
19879;SDS011;10102;50.828;4.416;2022-07-01T12:19:27;4.65;;;0.70;;
19879;SDS011;10102;50.828;4.416;2022-07-01T12:22:14;4.68;;;0.70;;
19879;SDS011;10102;50.828;4.416;2022-07-01T12:24:41;5.57;;;0.73;;
19879;SDS011;10102;50.828;4.416;2022-07-01T12:27:09;1.85;;;0.73;;
19879;SDS011;10102;50.828;4.416;2022-07-01T12:32:28;2.83;;;0.70;;
19879;SDS011;10102;50.828;4.416;2022-07-01T12:34:58;3.78;;;0.90;;
19879;SDS011;10102;50.828;4.416;2022-07-01T12:37:29;6.72;;;0.70;;
19879;SDS011;10102;50.828;4.416;2022-07-01T12:39:58;2.80;;;1.10;;
19879;SDS011;10102;50.828;4.416;2022-07-01T12:44:51;4.22;;;0.55;;
19879;SDS011;10102;50.828;4.416;2022-07-01T12:52:38;4.45;;;0.77;;
19879;SDS011;10102;50.828;4.416;2022-07-01T12:55:40;2.88;;;0.88;;
19879;SDS011;10102;50.828;4.416;2022-07-01T12:57:59;3.92;;;0.80;;
19879;SDS011;10102;50.828;4.416;2022-07-01T13:00:26;6.78;;;0.70;;
19879;SDS011;10102;50.828;4.416;2022-07-01T13:02:56;4.85;;;0.80;;
19879;SDS011;10102;50.828;4.416;2022-07-01T13:05:24;3.35;;;0.80;;
19879;SDS011;10102;50.828;4.416;2022-07-01T13:07:50;8.25;;;1.40;;
19879;SDS011;10102;50.828;4.416;2022-07-01T13:10:16;2.58;;;0.70;;
19879;SDS011;10102;50.828;4.416;2022-07-01T13:12:43;2.47;;;0.70;;
19879;SDS011;10102;50.828;4.416;2022-07-01T13:15:10;3.13;;;0.70;;
19879;SDS011;10102;50.828;4.416;2022-07-01T13:17:37;4.10;;;0.50;;
19879;SDS011;10102;50.828;4.416;2022-07-01T13:20:03;3.10;;;0.82;;
19879;SDS011;10102;50.828;4.416;2022-07-01T13:22:29;4.32;;;0.82;;
19879;SDS011;10102;50.828;4.416;2022-07-01T13:24:54;2.08;;;0.63;;
19879;SDS011;10102;50.828;4.416;2022-07-01T13:27:20;5.43;;;0.60;;
19879;SDS011;10102;50.828;4.416;2022-07-01T13:29:48;3.97;;;1.10;;
19879;SDS011;10102;50.828;4.416;2022-07-01T13:32:14;1.85;;;0.70;;
19879;SDS011;10102;50.828;4.416;2022-07-01T13:34:40;3.17;;;0.82;;
19879;SDS011;10102;50.828;4.416;2022-07-01T13:37:06;3.45;;;0.70;;
19879;SDS011;10102;50.828;4.416;2022-07-01T13:39:32;2.67;;;0.70;;
19879;SDS011;10102;50.828;4.416;2022-07-01T13:41:58;2.30;;;0.60;;
19879;SDS011;10102;50.828;4.416;2022-07-01T13:44:24;2.85;;;0.68;;
19879;SDS011;10102;50.828;4.416;2022-07-01T13:46:49;4.30;;;0.50;;
19879;SDS011;10102;50.828;4.416;2022-07-01T13:49:15;4.82;;;1.02;;
19879;SDS011;10102;50.828;4.416;2022-07-01T13:51:41;2.28;;;0.60;;
19879;SDS011;10102;50.828;4.416;2022-07-01T13:54:07;3.13;;;1.02;;
19879;SDS011;10102;50.828;4.416;2022-07-01T13:56:33;1.77;;;0.82;;
19879;SDS011;10102;50.828;4.416;2022-07-01T13:58:59;3.42;;;0.90;;
19879;SDS011;10102;50.828;4.416;2022-07-01T14:01:24;3.63;;;1.25;;
19879;SDS011;10102;50.828;4.416;2022-07-01T14:03:51;2.85;;;1.00;;
19879;SDS011;10102;50.828;4.416;2022-07-01T14:06:17;2.53;;;0.70;;
19879;SDS011;10102;50.828;4.416;2022-07-01T14:08:44;2.95;;;0.80;;
19879;SDS011;10102;50.828;4.416;2022-07-01T14:11:10;1.88;;;0.70;;
19879;SDS011;10102;50.828;4.416;2022-07-01T14:13:36;1.48;;;0.73;;
19879;SDS011;10102;50.828;4.416;2022-07-01T14:16:04;3.42;;;0.90;;
19879;SDS011;10102;50.828;4.416;2022-07-01T14:18:31;5.57;;;0.90;;
19879;SDS011;10102;50.828;4.416;2022-07-01T14:20:57;4.38;;;0.90;;
19879;SDS011;10102;50.828;4.416;2022-07-01T14:23:24;5.00;;;0.70;;
19879;SDS011;10102;50.828;4.416;2022-07-01T14:25:49;2.97;;;1.38;;
19879;SDS011;10102;50.828;4.416;2022-07-01T14:28:15;2.83;;;0.95;;
19879;SDS011;10102;50.828;4.416;2022-07-01T14:30:41;2.97;;;0.75;;
19879;SDS011;10102;50.828;4.416;2022-07-01T14:33:06;3.25;;;0.73;;
19879;SDS011;10102;50.828;4.416;2022-07-01T14:35:32;2.00;;;0.70;;
19879;SDS011;10102;50.828;4.416;2022-07-01T14:37:58;5.30;;;0.95;;
19879;SDS011;10102;50.828;4.416;2022-07-01T14:40:24;2.40;;;0.75;;
19879;SDS011;10102;50.828;4.416;2022-07-01T14:42:50;5.47;;;1.20;;
19879;SDS011;10102;50.828;4.416;2022-07-01T14:45:16;5.65;;;0.95;;
19879;SDS011;10102;50.828;4.416;2022-07-01T14:47:43;6.47;;;0.60;;
19879;SDS011;10102;50.828;4.416;2022-07-01T14:50:09;2.30;;;0.90;;
19879;SDS011;10102;50.828;4.416;2022-07-01T14:52:36;2.72;;;0.75;;
19879;SDS011;10102;50.828;4.416;2022-07-01T14:55:02;3.17;;;0.60;;
19879;SDS011;10102;50.828;4.416;2022-07-01T14:57:28;2.63;;;0.57;;
19879;SDS011;10102;50.828;4.416;2022-07-01T15:00:00;7.43;;;0.90;;
19879;SDS011;10102;50.828;4.416;2022-07-01T15:02:27;2.25;;;0.70;;
19879;SDS011;10102;50.828;4.416;2022-07-01T15:04:53;2.10;;;0.68;;
19879;SDS011;10102;50.828;4.416;2022-07-01T15:07:18;3.63;;;0.77;;
19879;SDS011;10102;50.828;4.416;2022-07-01T15:09:44;2.15;;;0.68;;
19879;SDS011;10102;50.828;4.416;2022-07-01T15:12:10;7.57;;;1.08;;
19879;SDS011;10102;50.828;4.416;2022-07-01T15:14:36;3.83;;;0.93;;
19879;SDS011;10102;50.828;4.416;2022-07-01T15:17:02;3.45;;;0.70;;
19879;SDS011;10102;50.828;4.416;2022-07-01T15:19:28;2.55;;;0.60;;
19879;SDS011;10102;50.828;4.416;2022-07-01T15:21:54;2.72;;;0.80;;
19879;SDS011;10102;50.828;4.416;2022-07-01T15:24:20;5.35;;;0.80;;